createdAt,value
2019-04-22T00:01:16.388Z,46.98
2019-04-22T00:03:49.737Z,46.79
2019-04-22T00:06:34.147Z,47.02
2019-04-22T00:09:03.555Z,47.27
2019-04-22T00:11:43.338Z,47.14
2019-04-22T00:14:01.289Z,46.96
2019-04-22T00:16:46.939Z,46.98
2019-04-22T00:19:19.339Z,47.36
2019-04-22T00:21:43.213Z,47.60
2019-04-22T00:24:10.653Z,47.56
2019-04-22T00:26:45.527Z,47.41
2019-04-22T00:29:34.498Z,47.49
2019-04-22T00:32:04.972Z,47.62
2019-04-22T00:34:43.990Z,47.90
2019-04-22T00:37:17.224Z,48.16
2019-04-22T00:39:46.528Z,48.09
2019-04-22T00:42:17.257Z,48.08
2019-04-22T00:44:46.644Z,48.19
2019-04-22T00:47:24.957Z,48.08
2019-04-22T00:52:16.603Z,48.14
2019-04-22T00:54:55.781Z,47.93
2019-04-22T00:57:26.300Z,48.13
2019-04-22T00:59:54.892Z,48.18
2019-04-22T01:04:59.571Z,48.08
2019-04-22T01:07:27.103Z,48.29
2019-04-22T01:09:58.633Z,48.50
2019-04-22T01:12:26.445Z,48.65
2019-04-22T01:14:57.362Z,48.71
2019-04-22T01:17:29.201Z,48.92
2019-04-22T01:20:13.927Z,49.19
2019-04-22T01:22:30.333Z,49.36
2019-04-22T01:27:22.114Z,49.63
2019-04-22T01:29:48.945Z,49.75
2019-04-22T01:32:15.373Z,49.84
2019-04-22T01:34:52.586Z,49.87
2019-04-22T01:37:32.886Z,49.86
2019-04-22T01:40:09.686Z,49.79
2019-04-22T01:42:39.449Z,49.98
2019-04-22T01:45:06.698Z,49.69
2019-04-22T01:47:43.982Z,50.02
2019-04-22T01:50:16.504Z,50.11
2019-04-22T01:52:47.217Z,50.19
2019-04-22T01:55:17.459Z,50.14
2019-04-22T01:57:45.650Z,50.17
2019-04-22T02:00:05.240Z,50.07
2019-04-22T02:02:42.838Z,49.93
2019-04-22T02:05:17.718Z,49.77
2019-04-22T02:08:04.426Z,49.68
2019-04-22T02:10:20.138Z,49.74
2019-04-22T02:12:45.680Z,49.80
2019-04-22T02:15:16.741Z,49.86
2019-04-22T02:17:57.942Z,49.96
2019-04-22T02:20:23.201Z,50.02
2019-04-22T02:23:45.446Z,50.17
2019-04-22T02:26:09.359Z,50.18
2019-04-22T02:34:11.374Z,50.26
2019-04-22T02:56:27.262Z,51.51
2019-04-22T03:06:36.763Z,52.00
2019-04-22T03:09:00.486Z,52.13
2019-04-22T03:11:25.305Z,52.04
2019-04-22T03:14:01.377Z,52.02
2019-04-22T03:16:31.953Z,52.11
2019-04-22T03:21:27.975Z,52.50
2019-04-22T03:24:06.037Z,52.40
2019-04-22T03:26:43.818Z,52.61
2019-04-22T03:39:38.052Z,53.32
2019-04-22T03:47:11.330Z,53.60
2019-04-22T03:49:37.162Z,53.78
2019-04-22T03:52:11.217Z,53.85
2019-04-22T03:54:39.956Z,53.89
2019-04-22T03:59:47.716Z,54.15
2019-04-22T04:04:36.823Z,54.20
2019-04-22T04:09:38.584Z,54.07
2019-04-22T04:12:18.248Z,54.23
2019-04-22T04:14:47.183Z,54.27
2019-04-22T04:17:08.885Z,54.35
2019-04-22T04:22:21.363Z,54.65
2019-04-22T04:24:55.895Z,54.65
2019-04-22T04:35:07.170Z,55.07
2019-04-22T04:39:59.813Z,55.43
2019-04-22T04:47:39.107Z,55.49
2019-04-22T04:49:52.932Z,55.55
2019-04-22T04:52:39.110Z,55.73
2019-04-22T04:55:17.573Z,55.70
2019-04-22T05:00:22.098Z,55.76
2019-04-22T05:02:35.198Z,55.79
2019-04-22T05:05:06.281Z,55.92
2019-04-22T05:07:44.213Z,56.02
2019-04-22T05:10:03.820Z,56.05
2019-04-22T05:14:55.085Z,56.12
2019-04-22T05:20:08.461Z,56.20
2019-04-22T05:22:28.363Z,56.37
2019-04-22T05:24:58.369Z,56.55
2019-04-22T05:30:23.358Z,56.46
2019-04-22T05:32:31.031Z,56.22
2019-04-22T05:35:03.494Z,55.99
2019-04-22T05:40:14.016Z,55.53
2019-04-22T05:42:43.898Z,55.38
2019-04-22T05:45:04.587Z,55.27
2019-04-22T05:47:35.537Z,55.06
2019-04-22T05:50:02.241Z,54.87
2019-04-22T05:52:34.421Z,54.74
2019-04-22T05:55:08.198Z,54.94
2019-04-22T05:57:34.420Z,54.50
2019-04-22T06:00:08.266Z,54.31
2019-04-22T06:02:47.369Z,54.26
2019-04-22T06:05:11.734Z,54.09
2019-04-22T06:07:41.056Z,53.73
2019-04-22T06:12:40.545Z,53.34
2019-04-22T06:15:12.209Z,53.20
2019-04-22T06:17:54.789Z,53.00
2019-04-22T06:20:15.930Z,52.73
2019-04-22T06:22:50.771Z,52.49
2019-04-22T06:25:27.589Z,52.39
2019-04-22T06:30:24.320Z,52.05
2019-04-22T06:32:53.400Z,51.92
2019-04-22T06:35:29.758Z,51.84
2019-04-22T06:38:18.882Z,51.60
2019-04-22T06:40:29.718Z,51.55
2019-04-22T06:42:57.927Z,51.43
2019-04-22T06:45:26.322Z,51.33
2019-04-22T06:50:30.268Z,50.88
2019-04-22T06:53:06.791Z,50.74
2019-04-22T06:57:58.211Z,50.84
2019-04-22T07:00:30.783Z,50.80
2019-04-22T07:05:32.868Z,49.94
2019-04-22T07:08:18.286Z,49.64
2019-04-22T07:13:13.289Z,48.99
2019-04-22T07:15:46.546Z,49.30
2019-04-22T07:18:11.199Z,49.30
2019-04-22T07:20:38.634Z,47.96
2019-04-22T07:23:13.811Z,47.78
2019-04-22T07:25:41.234Z,48.18
2019-04-22T07:28:11.280Z,47.43
2019-04-22T07:30:41.098Z,45.88
2019-04-22T07:38:17.656Z,44.40
2019-04-22T07:40:51.827Z,45.01
2019-04-22T07:43:20.169Z,44.09
2019-04-22T07:45:49.268Z,43.49
2019-04-22T07:48:26.178Z,42.99
2019-04-22T07:50:58.334Z,42.55
2019-04-22T07:53:19.840Z,41.89
2019-04-22T07:55:55.440Z,41.19
2019-04-22T07:58:25.730Z,40.47
2019-04-22T08:00:55.932Z,40.30
2019-04-22T08:03:44.334Z,40.42
2019-04-22T08:08:25.834Z,40.77
2019-04-22T08:10:57.918Z,39.34
2019-04-22T08:13:30.843Z,38.26
2019-04-22T08:15:58.179Z,36.13
2019-04-22T08:18:28.373Z,36.08
2019-04-22T08:21:03.184Z,36.05
2019-04-22T08:23:31.843Z,36.61
2019-04-22T08:26:00.818Z,36.60
2019-04-22T08:31:10.366Z,36.21
2019-04-22T08:33:41.180Z,33.81
2019-04-22T08:36:11.942Z,33.22
2019-04-22T08:38:39.393Z,33.09
2019-04-22T08:41:23.004Z,32.81
2019-04-22T08:43:56.491Z,32.84
2019-04-22T08:46:23.587Z,33.62
2019-04-22T08:48:52.794Z,31.88
2019-04-22T08:51:21.041Z,32.01
2019-04-22T08:53:56.246Z,31.36
2019-04-22T08:56:29.358Z,32.63
2019-04-22T08:58:59.947Z,32.36
2019-04-22T09:01:23.818Z,32.13
2019-04-22T09:03:56.950Z,31.27
2019-04-22T09:06:39.889Z,30.39
2019-04-22T09:08:55.227Z,31.26
2019-04-22T09:11:27.043Z,31.48
2019-04-22T09:13:55.102Z,30.95
2019-04-22T09:16:32.733Z,30.37
2019-04-22T09:19:02.599Z,30.46
2019-04-22T09:26:30.359Z,30.69
2019-04-22T09:29:10.113Z,31.88
2019-04-22T09:31:30.436Z,31.73
2019-04-22T09:33:59.336Z,29.81
2019-04-22T09:36:33.996Z,28.95
2019-04-22T09:39:01.102Z,27.98
2019-04-22T09:44:02.886Z,29.51
2019-04-22T09:49:12.241Z,29.21
2019-04-22T09:51:41.449Z,29.21
2019-04-22T09:54:20.085Z,28.77
2019-04-22T09:59:08.810Z,27.69
2019-04-22T10:02:04.084Z,27.65
2019-04-22T10:04:14.291Z,27.56
2019-04-22T10:06:36.901Z,25.54
2019-04-22T10:09:44.282Z,23.72
2019-04-22T10:11:47.685Z,23.78
2019-04-22T10:19:18.694Z,25.07
2019-04-22T10:21:52.665Z,25.60
2019-04-22T10:24:13.952Z,25.76
2019-04-22T10:29:20.439Z,24.15
2019-04-22T10:31:52.778Z,23.41
2019-04-22T10:34:08.269Z,23.46
2019-04-22T10:36:27.794Z,23.64
2019-04-22T10:38:58.030Z,24.18
2019-04-22T10:41:28.435Z,24.46
2019-04-22T10:43:59.184Z,24.04
2019-04-22T10:46:28.501Z,24.44
2019-04-22T10:48:58.064Z,23.33
2019-04-22T10:51:28.538Z,24.40
2019-04-22T10:53:57.762Z,23.74
2019-04-22T10:56:27.344Z,24.05
2019-04-22T10:58:56.392Z,22.92
2019-04-22T11:01:25.712Z,23.28
2019-04-22T11:03:55.201Z,23.41
2019-04-22T11:06:25.384Z,23.19
2019-04-22T11:09:00.965Z,23.81
2019-04-22T11:11:34.678Z,23.04
2019-04-22T11:13:56.199Z,23.06
2019-04-22T11:16:25.727Z,23.65
2019-04-22T11:18:55.852Z,24.42
2019-04-22T11:21:25.387Z,23.42
2019-04-22T11:23:54.677Z,23.50
2019-04-22T11:26:23.972Z,23.24
2019-04-22T11:28:53.984Z,24.30
2019-04-22T11:31:24.113Z,23.47
2019-04-22T11:33:54.420Z,24.27
2019-04-22T11:36:25.641Z,22.69
2019-04-22T11:39:00.362Z,21.62
2019-04-22T11:41:25.663Z,21.46
2019-04-22T11:43:54.752Z,21.12
2019-04-22T11:46:25.308Z,21.48
2019-04-22T11:48:55.925Z,19.79
2019-04-22T11:51:25.080Z,19.58
2019-04-22T11:53:54.766Z,20.51
2019-04-22T11:56:25.260Z,19.50
2019-04-22T11:58:55.182Z,19.62
2019-04-22T12:01:24.701Z,19.17
2019-04-22T12:03:53.947Z,19.09
2019-04-22T12:06:24.005Z,19.50
2019-04-22T12:08:54.159Z,19.16
2019-04-22T12:11:23.395Z,19.55
2019-04-22T12:13:53.816Z,20.29
2019-04-22T12:16:23.378Z,21.38
2019-04-22T12:18:53.517Z,20.97
2019-04-22T12:21:23.410Z,20.89
2019-04-22T12:23:52.902Z,19.63
2019-04-22T12:26:24.686Z,19.73
2019-04-22T12:28:53.291Z,19.38
2019-04-22T12:31:23.677Z,19.34
2019-04-22T12:33:53.113Z,19.42
2019-04-22T12:36:22.635Z,19.50
2019-04-22T12:38:51.781Z,19.80
2019-04-22T12:41:21.618Z,20.56
2019-04-22T12:43:51.500Z,20.96
2019-04-22T12:46:20.621Z,21.71
2019-04-22T12:48:49.915Z,20.21
2019-04-22T12:51:19.099Z,20.09
2019-04-22T12:53:48.846Z,20.42
2019-04-22T12:56:19.386Z,20.90
2019-04-22T12:58:49.873Z,20.35
2019-04-22T13:01:19.104Z,19.95
2019-04-22T13:03:48.229Z,19.87
2019-04-22T13:06:17.647Z,19.71
2019-04-22T13:08:47.662Z,20.16
2019-04-22T13:11:20.217Z,19.64
2019-04-22T13:13:49.153Z,20.27
2019-04-22T13:16:18.480Z,19.25
2019-04-22T13:18:53.850Z,18.10
2019-04-22T13:21:18.638Z,18.41
2019-04-22T13:23:48.871Z,18.03
2019-04-22T13:26:18.978Z,17.75
2019-04-22T13:28:49.238Z,17.52
2019-04-22T13:31:20.727Z,16.94
2019-04-22T13:33:52.778Z,17.99
2019-04-22T13:36:22.723Z,18.33
2019-04-22T13:38:51.294Z,19.09
2019-04-22T13:41:31.172Z,19.55
2019-04-22T13:43:51.095Z,19.28
2019-04-22T13:46:20.161Z,17.75
2019-04-22T13:49:14.846Z,17.97
2019-04-22T13:56:45.101Z,17.91
2019-04-22T13:59:04.589Z,18.43
2019-04-22T14:01:28.441Z,19.19
2019-04-22T14:04:07.084Z,18.85
2019-04-22T14:06:36.657Z,18.67
2019-04-22T14:09:09.412Z,19.06
2019-04-22T14:11:48.888Z,19.67
2019-04-22T14:14:09.341Z,19.65
2019-04-22T14:16:38.405Z,19.34
2019-04-22T14:19:07.924Z,20.10
2019-04-22T14:21:37.042Z,19.70
2019-04-22T14:24:07.310Z,20.08
2019-04-22T14:26:52.045Z,20.25
2019-04-22T14:29:08.137Z,19.65
2019-04-22T14:31:38.332Z,20.29
2019-04-22T14:34:09.568Z,20.33
2019-04-22T14:36:39.288Z,20.97
2019-04-22T14:39:10.286Z,20.42
2019-04-22T14:41:55.330Z,20.26
2019-04-22T14:47:09.062Z,20.57
2019-04-22T14:49:40.237Z,21.16
2019-04-22T14:52:10.649Z,20.99
2019-04-22T14:54:26.557Z,21.19
2019-04-22T14:56:44.627Z,20.99
2019-04-22T14:59:13.758Z,21.52
2019-04-22T15:01:43.536Z,21.57
2019-04-22T15:04:13.319Z,21.65
2019-04-22T15:06:45.155Z,22.13
2019-04-22T15:09:14.395Z,22.19
2019-04-22T15:11:57.013Z,21.58
2019-04-22T15:14:15.204Z,22.00
2019-04-22T15:17:02.651Z,22.42
2019-04-22T15:19:37.940Z,22.44
2019-04-22T15:22:08.428Z,22.04
2019-04-22T15:24:38.780Z,22.71
2019-04-22T15:27:08.735Z,22.33
2019-04-22T15:29:39.078Z,22.52
2019-04-22T15:32:09.350Z,22.78
2019-04-22T15:34:39.476Z,22.58
2019-04-22T15:37:08.764Z,23.08
2019-04-22T15:39:37.822Z,23.40
2019-04-22T15:42:14.555Z,23.78
2019-04-22T15:44:37.717Z,24.20
2019-04-22T15:47:07.044Z,24.23
2019-04-22T15:49:36.137Z,23.91
2019-04-22T15:52:06.633Z,23.83
2019-04-22T15:54:37.418Z,24.30
2019-04-22T15:57:06.791Z,24.36
2019-04-22T15:59:53.745Z,24.99
2019-04-22T16:02:08.311Z,24.73
2019-04-22T16:04:38.792Z,24.66
2019-04-22T16:07:08.620Z,24.66
2019-04-22T16:09:39.346Z,25.33
2019-04-22T16:12:16.144Z,25.48
2019-04-22T16:14:43.829Z,25.46
2019-04-22T16:17:10.597Z,25.85
2019-04-22T16:19:41.064Z,25.40
2019-04-22T16:22:16.905Z,25.19
2019-04-22T16:25:02.039Z,25.58
2019-04-22T16:27:32.069Z,25.57
2019-04-22T16:30:01.488Z,26.29
2019-04-22T16:32:31.923Z,26.67
2019-04-22T16:35:01.082Z,26.73
2019-04-22T16:37:30.596Z,26.39
2019-04-22T16:40:00.837Z,26.87
2019-04-22T16:42:37.715Z,27.07
2019-04-22T16:45:01.873Z,27.01
2019-04-22T16:47:31.393Z,26.28
2019-04-22T16:50:01.756Z,25.67
2019-04-22T16:52:32.212Z,24.60
2019-04-22T16:55:01.379Z,23.48
2019-04-22T16:57:30.477Z,23.82
2019-04-22T17:00:00.478Z,24.49
2019-04-22T17:02:58.654Z,24.95
2019-04-22T17:05:45.693Z,25.84
2019-04-22T17:08:16.338Z,26.20
2019-04-22T17:10:46.030Z,26.92
2019-04-22T17:13:20.691Z,27.02
2019-04-22T17:15:47.253Z,27.03
2019-04-22T17:18:17.197Z,26.81
2019-04-22T17:20:46.588Z,27.24
2019-04-22T17:23:15.925Z,27.21
2019-04-22T17:25:45.173Z,27.59
2019-04-22T17:28:15.393Z,27.80
2019-04-22T17:30:45.715Z,27.84
2019-04-22T17:33:14.854Z,28.23
2019-04-22T17:35:46.671Z,28.48
2019-04-22T17:38:23.568Z,28.88
2019-04-22T17:41:02.580Z,28.97
2019-04-22T17:43:52.292Z,29.34
2019-04-22T17:46:12.065Z,29.65
2019-04-22T17:48:53.358Z,29.72
2019-04-22T17:51:29.895Z,29.83
2019-04-22T17:53:59.896Z,29.97
2019-04-22T17:56:28.227Z,29.70
2019-04-22T17:58:57.139Z,29.72
2019-04-22T18:01:25.491Z,29.54
2019-04-22T18:03:42.395Z,29.56
2019-04-22T18:06:17.554Z,29.83
2019-04-22T18:08:59.049Z,30.06
2019-04-22T18:11:37.786Z,29.83
2019-04-22T18:14:16.165Z,29.92
2019-04-22T18:16:30.540Z,30.10
2019-04-22T18:19:00.563Z,30.24
2019-04-22T18:21:26.346Z,30.45
2019-04-22T18:23:52.849Z,30.52
2019-04-22T18:26:33.444Z,30.57
2019-04-22T18:29:05.725Z,30.76
2019-04-22T18:31:26.884Z,30.79
2019-04-22T18:34:00.674Z,31.15
2019-04-22T18:36:36.029Z,31.14
2019-04-22T18:39:12.898Z,31.39
2019-04-22T18:41:36.499Z,31.35
2019-04-22T18:44:09.635Z,31.53
2019-04-22T18:46:36.548Z,31.70
2019-04-22T18:49:08.170Z,31.93
2019-04-22T18:51:46.827Z,32.03
2019-04-22T18:54:30.668Z,32.30
2019-04-22T18:57:02.724Z,32.50
2019-04-22T18:59:22.509Z,32.69
2019-04-22T19:01:48.114Z,32.78
2019-04-22T19:04:25.370Z,33.09
2019-04-22T19:07:07.362Z,33.37
2019-04-22T19:09:49.956Z,33.58
2019-04-22T19:12:23.675Z,33.90
2019-04-22T19:14:51.112Z,34.05
2019-04-22T19:17:30.049Z,34.24
2019-04-22T19:19:50.007Z,34.71
2019-04-22T19:22:16.234Z,35.06
2019-04-22T19:24:41.774Z,35.26
2019-04-22T19:27:15.732Z,35.68
2019-04-22T19:29:55.849Z,35.86
2019-04-22T19:32:21.337Z,36.28
2019-04-22T19:34:50.541Z,36.57
2019-04-22T19:37:18.957Z,36.62
2019-04-22T19:40:00.929Z,37.00
2019-04-22T19:42:33.135Z,37.20
2019-04-22T19:44:55.165Z,37.47
2019-04-22T19:49:59.072Z,37.47
2019-04-22T19:52:28.679Z,37.55
2019-04-22T19:54:59.360Z,37.63
2019-04-22T19:57:22.452Z,37.94
2019-04-22T19:59:57.408Z,37.92
2019-04-22T20:02:57.484Z,37.83
2019-04-22T20:05:48.072Z,38.02
2019-04-22T20:08:15.317Z,38.24
2019-04-22T20:10:47.100Z,38.30
2019-04-22T20:13:28.878Z,38.38
2019-04-22T20:15:41.171Z,38.63
2019-04-22T20:18:29.681Z,38.67
2019-04-22T20:20:54.071Z,38.87
2019-04-22T20:23:15.955Z,39.09
2019-04-22T20:25:46.435Z,39.24
2019-04-22T20:28:25.650Z,39.45
2019-04-22T20:30:50.595Z,39.71
2019-04-22T20:33:29.498Z,40.12
2019-04-22T20:36:01.535Z,40.13
2019-04-22T20:38:28.029Z,40.19
2019-04-22T20:40:55.159Z,40.43
2019-04-22T20:43:35.540Z,40.40
2019-04-22T20:45:59.191Z,40.54
2019-04-22T20:48:22.794Z,40.45
2019-04-22T20:50:58.217Z,40.68
2019-04-22T20:53:34.452Z,40.75
2019-04-22T20:56:01.021Z,40.90
2019-04-22T20:58:32.745Z,41.10
2019-04-22T21:00:58.366Z,41.36
2019-04-22T21:03:26.139Z,41.53
2019-04-22T21:05:55.890Z,41.78
2019-04-22T21:08:38.010Z,41.89
2019-04-22T21:10:56.127Z,42.29
2019-04-22T21:13:27.825Z,42.52
2019-04-22T21:16:09.278Z,42.94
2019-04-22T21:18:30.598Z,43.21
2019-04-22T21:21:07.096Z,43.48
2019-04-22T21:23:36.603Z,43.92
2019-04-22T21:26:11.101Z,44.08
2019-04-22T21:28:40.883Z,44.21
2019-04-22T21:31:14.925Z,44.34
2019-04-22T21:33:44.747Z,44.57
2019-04-22T21:36:19.936Z,44.70
2019-04-22T21:38:44.025Z,44.75
2019-04-22T21:41:17.708Z,44.79
2019-04-22T21:43:51.425Z,44.87
2019-04-22T21:46:16.234Z,44.87
2019-04-22T21:48:46.302Z,45.01
2019-04-22T21:51:19.140Z,45.23
2019-04-22T21:54:00.395Z,45.35
2019-04-22T21:56:38.224Z,45.43
2019-04-22T21:58:55.990Z,45.52
2019-04-22T22:01:49.795Z,45.69
2019-04-22T22:04:11.432Z,45.91
2019-04-22T22:06:31.061Z,46.12
2019-04-22T22:09:15.769Z,46.35
2019-04-22T22:11:41.750Z,46.54
2019-04-22T22:14:11.600Z,46.77
2019-04-22T22:16:34.913Z,46.91
2019-04-22T22:19:10.963Z,46.97
2019-04-22T22:21:51.340Z,47.14
2019-04-22T22:24:20.723Z,47.27
2019-04-22T22:26:54.266Z,47.44
2019-04-22T22:29:31.204Z,47.57
2019-04-22T22:31:55.637Z,47.65
2019-04-22T22:34:34.841Z,47.84
2019-04-22T22:36:40.635Z,48.05
2019-04-22T22:39:14.683Z,48.14
2019-04-22T22:41:31.856Z,48.34
2019-04-22T22:44:08.974Z,48.47
2019-04-22T22:46:44.317Z,48.58
2019-04-22T22:49:28.281Z,48.60
2019-04-22T22:52:11.685Z,48.77
2019-04-22T22:54:31.759Z,48.92
2019-04-22T22:59:29.580Z,49.00
2019-04-22T23:01:54.337Z,49.15
2019-04-22T23:04:37.243Z,49.36
2019-04-22T23:07:09.256Z,49.47
2019-04-22T23:09:30.761Z,49.66
2019-04-22T23:14:34.699Z,50.00
2019-04-22T23:16:51.448Z,50.09
2019-04-22T23:19:13.679Z,50.13
2019-04-22T23:21:46.829Z,50.15
2019-04-22T23:24:43.970Z,50.31
2019-04-22T23:27:20.527Z,50.35
2019-04-22T23:30:06.491Z,50.52
2019-04-22T23:32:37.818Z,50.90
2019-04-22T23:35:35.320Z,50.65
2019-04-22T23:38:06.293Z,50.72
2019-04-22T23:40:39.018Z,51.04
2019-04-22T23:43:15.873Z,50.95
2019-04-22T23:45:43.414Z,50.95
2019-04-22T23:48:06.810Z,50.96
2019-04-22T23:50:47.741Z,50.98
2019-04-22T23:53:42.338Z,50.81
2019-04-22T23:56:00.514Z,50.69
2019-04-22T23:58:49.245Z,50.63
